Latest Weather Observations for Lady Elliot Island

IDQ60801

Issued at 9:32 am EST Monday 27 February 2017 (issued every 30 minutes, with the page automatically refreshed every 10 minutes)

About weather observations | Map of weather stations | Latest weather observations for QLD | Other Formats
Station Details ID: 039059 Name: LADY ELLIOT ISLAND Lat: -24.11 Lon: 152.72 Height: 3.6 m
Data from the previous 72 hours. | See also: Recent months at Lady Elliot Island
Date/Time
EST
Temp
°C
App
Temp
°C
Dew
Point
°C
Rel
Hum
%
Delta-T
°C
Wind Press
QNH
hPa
Press
MSL
hPa
Rain since
9am
mm
Dir  Spd
km/h
Gust
km/h
Spd
kts
Gust
kts
27/09:00am 27.8 28.2 20.9 66 4.6 SE 20 28 11 15 1015.0 1015.0 7.6
27/08:30am 27.6 27.9 20.7 66 4.6 SE 20 26 11 14 1015.0 1015.0 7.6
27/08:00am 26.4 26.3 21.4 74 3.3 SE 24 30 13 16 1014.7 1014.7 7.6
27/07:30am 26.6 26.7 20.4 69 4.1 ESE 20 28 11 15 1014.4 1014.4 7.6
27/07:00am 26.3 26.5 20.6 71 3.7 SE 20 28 11 15 1013.9 1013.9 7.6
27/06:30am 25.5 24.9 20.5 74 3.3 SE 24 32 13 17 1013.6 1013.6 7.6
27/06:00am 25.2 25.0 20.5 75 3.1 SE 22 30 12 16 1013.3 1013.3 7.6
27/05:30am 24.9 23.8 19.5 72 3.5 SE 24 33 13 18 1013.3 1013.3 7.6
27/05:00am 25.6 25.5 20.8 75 3.2 ESE 22 28 12 15 1013.1 1013.1 7.6
27/04:30am 24.8 25.2 20.7 78 2.7 SE 19 24 10 13 1013.0 1013.0 7.6
27/04:00am 24.3 24.4 20.0 77 2.8 SE 19 28 10 15 1013.1 1013.1 7.6
27/03:35am 24.6 23.0 20.1 76 2.9 SE 28 46 15 25 1012.9 1012.9 7.6
27/03:30am 25.2 24.7 20.7 76 2.9 SE 24 30 13 16 1012.8 1012.8 7.6
27/03:00am 25.0 25.1 21.1 79 2.6 SE 22 28 12 15 1012.9 1012.9 7.6
27/02:30am 24.8 23.7 21.1 80 2.4 SE 28 33 15 18 1013.3 1013.3 7.6
27/02:00am 24.8 24.5 21.1 80 2.4 ESE 24 30 13 16 1013.4 1013.4 5.6
27/01:30am 24.0 22.0 20.7 82 2.2 ESE 32 41 17 22 1013.7 1013.7 5.6
27/01:00am 23.9 24.9 21.0 84 1.9 ESE 17 37 9 20 1013.9 1013.9 5.6
27/12:44am 24.3 22.9 20.4 79 2.5 E 28 50 15 27 1014.1 1014.1 1.2
27/12:30am 25.6 23.9 19.9 70 3.7 SE 28 35 15 19 1014.2 1014.2 0.0
27/12:00am 26.2 24.6 20.1 69 4.0 SE 28 37 15 20 1014.3 1014.3 0.0
 
Date/Time
EST
Temp
°C
App
Temp
°C
Dew
Point
°C
Rel
Hum
%
Delta-T
°C
Wind Press
QNH
hPa
Press
MSL
hPa
Rain since
9am
mm
Dir  Spd
km/h
Gust
km/h
Spd
kts
Gust
kts
26/11:30pm 26.3 24.4 20.2 69 4.0 ESE 30 41 16 22 1014.1 1014.1 0.0
26/11:00pm 26.4 24.4 20.7 71 3.7 ESE 32 39 17 21 1014.1 1014.1 0.0
26/10:30pm 26.4 24.4 20.7 71 3.7 ESE 32 41 17 22 1014.1 1014.1 0.0
26/10:00pm 26.5 24.9 21.5 74 3.3 ESE 32 43 17 23 1014.2 1014.2 0.0
26/09:30pm 26.5 24.4 21.0 72 3.6 ESE 33 43 18 23 1014.5 1014.5 0.0
26/09:00pm 26.6 24.2 21.1 72 3.6 ESE 35 43 19 23 1014.5 1014.5 0.0
26/08:30pm 26.8 24.9 21.3 72 3.7 ESE 33 41 18 22 1014.4 1014.4 0.0
26/08:00pm 26.7 24.6 21.0 71 3.8 ESE 33 41 18 22 1014.1 1014.1 0.0
26/07:30pm 26.5 24.3 20.8 71 3.8 ESE 33 39 18 21 1013.9 1013.9 0.0
26/07:00pm 26.6 24.4 20.7 70 3.9 ESE 33 41 18 22 1013.3 1013.3 0.0
26/06:30pm 26.6 24.7 21.4 73 3.5 ESE 33 43 18 23 1012.9 1012.9 0.0
26/06:00pm 26.7 24.5 21.5 73 3.5 ESE 35 44 19 24 1012.5 1012.5 0.0
26/05:30pm 27.3 25.0 20.6 67 4.4 ESE 33 41 18 22 1012.3 1012.3 0.0
26/05:00pm 27.7 25.6 20.5 65 4.7 ESE 32 41 17 22 1012.4 1012.4 0.0
26/04:30pm 28.4 27.5 22.2 69 4.2 ESE 30 39 16 21 1012.3 1012.3 0.0
26/04:00pm 28.6 26.9 21.4 65 4.8 ESE 32 39 17 21 1012.1 1012.1 0.0
26/03:30pm 28.9 27.5 21.1 62 5.2 ESE 30 37 16 20 1012.0 1012.0 0.0
26/03:00pm 29.2 27.9 21.4 63 5.2 ESE 30 39 16 21 1012.3 1012.3 0.0
26/02:30pm 29.8 28.8 21.2 60 5.7 SE 28 35 15 19 1012.2 1012.2 0.0
26/02:00pm 29.7 29.3 21.6 61 5.4 ESE 26 35 14 19 1012.4 1012.4 0.0
26/01:30pm 29.7 28.9 20.8 58 5.9 SE 26 33 14 18 1012.6 1012.6 0.0
26/01:00pm 30.0 29.1 21.4 60 5.8 SE 28 35 15 19 1013.0 1013.0 0.0
26/12:30pm 30.4 30.3 21.5 59 6.0 SE 24 33 13 18 1013.2 1013.2 0.0
26/12:00pm 30.4 29.8 21.2 58 6.2 ESE 26 33 14 18 1013.4 1013.4 0.0
26/11:30am 30.1 30.3 22.0 62 5.5 ESE 24 33 13 18 1013.7 1013.7 0.0
26/11:00am 30.0 29.5 20.8 57 6.1 SE 24 32 13 17 1013.8 1013.8 0.0
26/10:30am 29.0 28.4 20.4 59 5.7 SE 24 32 13 17 1013.9 1013.9 0.0
26/10:00am 29.4 29.3 20.8 60 5.7 SE 22 30 12 16 1014.1 1014.1 0.0
26/09:30am 29.6 29.4 20.5 58 6.0 SE 22 28 12 15 1013.9 1013.9 0.0
26/09:00am 29.2 29.2 20.9 61 5.5 SE 22 30 12 16 1013.8 1013.8 0.0
26/08:30am 28.5 27.8 20.2 60 5.5 SE 24 32 13 17 1013.7 1013.7 0.0
26/08:00am 26.6 26.1 20.7 70 3.9 SE 24 32 13 17 1013.5 1013.5 0.0
26/07:30am 27.2 26.7 20.8 68 4.2 SE 24 30 13 16 1013.4 1013.4 0.0
26/07:00am 26.7 25.7 19.6 65 4.6 ESE 24 32 13 17 1013.0 1013.0 0.0
26/06:30am 26.3 24.9 18.9 63 4.7 ESE 24 30 13 16 1012.8 1012.8 0.0
26/06:00am 25.6 24.5 19.5 69 3.9 ESE 24 32 13 17 1012.4 1012.4 0.0
26/05:30am 25.5 24.4 19.4 69 3.9 ESE 24 32 13 17 1012.0 1012.0 0.0
26/05:00am 25.4 24.1 19.1 68 4.0 ESE 24 30 13 16 1011.9 1011.9 0.0
26/04:30am 25.2 24.9 19.6 71 3.6 SE 20 28 11 15 1011.7 1011.7 0.0
26/04:00am 25.0 24.7 20.3 75 3.1 SE 22 30 12 16 1011.4 1011.4 0.0
26/03:30am 25.3 25.8 20.1 73 3.4 SE 17 26 9 14 1011.5 1011.5 0.0
26/03:00am 25.3 25.3 20.1 73 3.4 ESE 20 28 11 15 1011.4 1011.4 0.0
26/02:30am 25.4 25.3 20.0 72 3.5 ESE 20 28 11 15 1011.7 1011.7 0.0
26/02:00am 25.4 24.8 19.8 71 3.6 ESE 22 30 12 16 1011.9 1011.9 0.0
26/01:30am 25.5 24.4 19.4 69 3.9 ESE 24 32 13 17 1012.1 1012.1 0.0
26/01:00am 25.4 24.2 19.3 69 3.9 ESE 24 32 13 17 1012.4 1012.4 0.0
26/12:30am 25.7 24.1 19.3 67 4.1 ESE 26 35 14 19 1012.8 1012.8 0.0
26/12:00am 25.7 23.9 19.6 69 3.9 ESE 28 39 15 21 1013.1 1013.1 0.0
 
Date/Time
EST
Temp
°C
App
Temp
°C
Dew
Point
°C
Rel
Hum
%
Delta-T
°C
Wind Press
QNH
hPa
Press
MSL
hPa
Rain since
9am
mm
Dir  Spd
km/h
Gust
km/h
Spd
kts
Gust
kts
25/11:30pm 26.0 24.0 19.9 69 4.0 ESE 30 37 16 20 1013.5 1013.5 0.0
25/11:00pm 25.8 23.9 19.4 67 4.1 ESE 28 35 15 19 1013.8 1013.8 0.0
25/10:30pm 25.9 23.8 19.8 69 4.0 ESE 30 37 16 20 1013.9 1013.9 0.0
25/10:00pm 26.0 23.7 19.4 67 4.3 ESE 30 39 16 21 1014.0 1014.0 0.0
25/09:30pm 26.2 23.5 19.3 65 4.4 ESE 32 39 17 21 1014.1 1014.1 0.0
25/09:00pm 26.3 23.6 19.2 65 4.6 SE 32 41 17 22 1014.0 1014.0 0.0
25/08:30pm 26.1 23.1 19.0 65 4.5 ESE 33 41 18 22 1013.6 1013.6 0.0
25/08:00pm 26.2 23.7 19.8 68 4.1 ESE 32 39 17 21 1013.4 1013.4 0.0
25/07:30pm 26.2 23.2 19.1 65 4.6 ESE 33 43 18 23 1013.0 1013.0 0.0
25/07:00pm 26.2 23.9 20.1 69 4.0 ESE 32 39 17 21 1012.8 1012.8 0.0
25/06:30pm 26.2 24.1 19.8 68 4.2 ESE 30 39 16 21 1012.6 1012.6 0.0
25/06:00pm 26.5 24.1 19.9 67 4.3 ESE 32 41 17 22 1012.3 1012.3 0.0
25/05:30pm 26.9 24.1 19.5 64 4.8 ESE 33 43 18 23 1012.2 1012.2 0.0
25/05:00pm 27.4 24.8 20.0 64 4.8 ESE 33 43 18 23 1012.1 1012.1 0.0
25/04:30pm 27.9 26.2 20.5 64 4.9 ESE 30 39 16 21 1012.0 1012.0 0.0
25/04:00pm 28.4 26.2 20.4 62 5.3 SE 32 39 17 21 1012.0 1012.0 0.0
25/03:30pm 28.4 26.2 20.4 62 5.3 SE 32 39 17 21 1011.9 1011.9 0.0
25/03:00pm 29.1 27.8 21.3 62 5.2 SE 30 41 16 22 1012.1 1012.1 0.0
25/02:30pm 29.5 28.0 20.9 60 5.7 SE 30 35 16 19 1012.4 1012.4 0.0
25/02:00pm 29.5 27.9 20.1 57 6.2 SE 28 35 15 19 1012.8 1012.8 0.0
25/01:30pm 29.9 28.5 20.5 57 6.2 SE 28 35 15 19 1013.2 1013.2 0.0
25/01:00pm 30.1 29.1 21.2 59 6.0 SE 28 35 15 19 1013.4 1013.4 0.0
25/12:30pm 29.9 28.6 20.7 57 6.1 SE 28 33 15 18 1013.7 1013.7 0.0
25/12:00pm 30.0 28.6 20.5 56 6.3 SE 28 37 15 20 1013.9 1013.9 0.0
25/11:30am 29.4 27.7 21.4 62 5.4 SE 32 41 17 22 1014.0 1014.0 0.0
25/11:00am 29.3 27.3 20.7 59 5.7 SE 32 37 17 20 1014.1 1014.1 0.0
25/10:30am 29.4 28.8 21.9 64 5.1 SE 28 39 15 21 1014.5 1014.5 0.0
25/10:00am 29.4 28.2 21.6 63 5.2 SE 30 37 16 20 1014.7 1014.7 0.0
25/09:30am 28.6 27.6 21.9 67 4.5 SE 30 37 16 20 1014.7 1014.7 0.0
25/09:00am 27.9 26.8 21.7 69 4.1 SE 30 39 16 21 1014.6 1014.6 0.2
25/08:30am 28.8 28.4 22.3 68 4.4 SE 28 37 15 20 1014.5 1014.5 0.2
25/08:00am 27.6 26.4 21.6 70 4.0 SE 30 35 16 19 1014.4 1014.4 0.2
25/07:30am 26.9 26.1 21.6 72 3.5 SE 28 33 15 18 1014.1 1014.1 0.2
25/07:00am 26.5 25.5 21.3 73 3.4 SE 28 33 15 18 1014.1 1014.1 0.2
25/06:30am 26.2 25.4 21.6 76 3.1 SE 28 33 15 18 1013.8 1013.8 0.2
25/06:00am 26.0 25.7 21.9 78 2.7 SE 26 33 14 18 1013.5 1013.5 0.2
25/05:30am 25.8 24.8 21.2 76 3.0 SE 28 33 15 18 1013.4 1013.4 0.2
25/05:00am 25.7 25.2 21.4 77 2.8 SE 26 32 14 17 1013.2 1013.2 0.2
25/04:30am 25.8 25.4 21.7 78 2.7 ESE 26 32 14 17 1013.0 1013.0 0.2
25/04:00am 25.8 25.9 21.9 79 2.6 ESE 24 30 13 16 1012.8 1012.8 0.2
25/03:30am 25.5 25.0 21.4 78 2.7 ESE 26 32 14 17 1012.9 1012.9 0.2
25/03:00am 25.4 24.8 21.3 78 2.7 ESE 26 32 14 17 1012.9 1012.9 0.2
25/02:30am 24.8 24.0 21.7 83 2.1 SE 28 39 15 21 1012.9 1012.9 0.2
25/02:00am 26.1 25.6 21.5 76 3.1 ESE 26 33 14 18 1012.8 1012.8 0.0
25/01:30am 26.1 25.4 21.1 74 3.3 ESE 26 32 14 17 1013.0 1013.0 0.0
25/01:00am 26.3 25.4 21.5 75 3.2 SE 28 39 15 21 1013.3 1013.3 0.0
25/12:30am 26.0 25.1 21.4 76 3.1 ESE 28 35 15 19 1013.7 1013.7 0.0
25/12:00am 26.5 25.4 21.7 75 3.2 SE 30 39 16 21 1013.9 1013.9 0.0
 
Date/Time
EST
Temp
°C
App
Temp
°C
Dew
Point
°C
Rel
Hum
%
Delta-T
°C
Wind Press
QNH
hPa
Press
MSL
hPa
Rain since
9am
mm
Dir  Spd
km/h
Gust
km/h
Spd
kts
Gust
kts
24/11:30pm 26.5 25.6 21.5 74 3.3 ESE 28 35 15 19 1014.3 1014.3 0.0
24/11:00pm 26.5 25.5 21.3 73 3.4 ESE 28 37 15 20 1014.7 1014.7 0.0
24/10:30pm 26.7 25.7 21.2 72 3.6 SE 28 37 15 20 1014.9 1014.9 0.0
24/10:00pm 26.4 25.2 21.6 75 3.2 ESE 30 37 16 20 1015.1 1015.1 0.0
24/09:30pm 26.7 25.9 22.3 77 3.0 SE 30 39 16 21 1015.3 1015.3 0.0
24/09:00pm 26.7 24.7 21.2 72 3.6 SE 33 43 18 23 1015.3 1015.3 0.0
24/08:30pm 26.7 24.6 21.7 74 3.3 SE 35 43 19 23 1015.1 1015.1 0.0
24/08:00pm 26.9 25.9 22.7 78 2.8 SE 32 43 17 23 1014.9 1014.9 0.0
24/07:30pm 26.8 25.6 22.2 76 3.1 ESE 32 43 17 23 1014.6 1014.6 0.0
24/07:00pm 26.7 25.4 22.1 76 3.1 ESE 32 43 17 23 1014.4 1014.4 0.0
24/06:30pm 26.8 25.4 22.0 75 3.2 ESE 32 41 17 22 1014.3 1014.3 0.0
24/06:00pm 26.9 25.4 22.1 75 3.2 ESE 33 43 18 23 1014.0 1014.0 0.0
24/05:30pm 27.4 25.9 21.7 71 3.8 ESE 32 39 17 21 1013.8 1013.8 0.0
24/05:00pm 27.9 27.0 22.2 71 3.8 ESE 30 37 16 20 1013.8 1013.8 0.0
24/04:30pm 28.5 28.1 22.3 69 4.2 ESE 28 37 15 20 1013.8 1013.8 0.0
24/04:00pm 28.4 27.6 21.7 67 4.5 ESE 28 35 15 19 1013.9 1013.9 0.0
24/03:30pm 29.0 28.4 22.7 69 4.3 SE 30 35 16 19 1014.1 1014.1 0.0
24/03:00pm 30.2 30.1 22.9 65 5.0 SE 28 35 15 19 1014.1 1014.1 0.0
24/02:30pm 29.6 29.0 22.6 66 4.8 SE 30 35 16 19 1014.3 1014.3 0.0
24/02:00pm 29.6 29.4 22.8 67 4.6 SE 28 35 15 19 1014.4 1014.4 0.0
24/01:30pm 30.1 29.4 22.5 63 5.2 SE 30 37 16 20 1014.6 1014.6 0.0
24/01:00pm 29.9 29.1 22.3 63 5.2 SE 30 37 16 20 1014.9 1014.9 0.0
24/12:30pm 29.9 29.6 22.6 65 5.0 SE 28 35 15 19 1015.2 1015.2 0.0
24/12:00pm 30.1 29.6 22.8 65 5.0 SE 30 37 16 20 1015.5 1015.5 0.0
24/11:30am 30.7 31.1 23.1 64 5.2 SE 26 35 14 19 1015.7 1015.7 0.0
24/11:00am 30.5 31.2 23.7 67 4.7 SE 26 35 14 19 1015.9 1015.9 0.0
24/10:30am 29.7 29.6 22.9 67 4.6 SE 28 35 15 19 1016.2 1016.2 0.0
24/10:00am 29.5 29.7 22.7 67 4.6 SE 26 32 14 17 1016.4 1016.4 0.0

Other Formats:

Comma delimited format used in spreadsheet applications
http://www.bom.gov.au/fwo/IDQ60801/IDQ60801.94388.axf

JavaScript Object Notation format (JSON) in row-major order
http://www.bom.gov.au/fwo/IDQ60801/IDQ60801.94388.json